createdAt,value
2023-03-28T00:00:54.715Z,98867.94
2023-03-28T00:02:59.883Z,98867.97
2023-03-28T00:05:04.943Z,98870.50
2023-03-28T00:07:10.293Z,98876.47
2023-03-28T00:09:14.944Z,98882.47
2023-03-28T00:11:23.744Z,98878.19
2023-03-28T00:13:32.053Z,98882.44
2023-03-28T00:15:40.391Z,98891.88
2023-03-28T00:17:45.331Z,98885.88
2023-03-28T00:19:50.214Z,98891.03
2023-03-28T00:21:57.709Z,98895.31
2023-03-28T00:24:04.717Z,98895.34
2023-03-28T00:26:13.406Z,98906.47
2023-03-28T00:28:20.710Z,98899.59
2023-03-28T00:30:28.153Z,98899.59
2023-03-28T00:32:33.056Z,98919.25
2023-03-28T00:34:38.046Z,98912.44
2023-03-28T00:36:43.118Z,98909.00
2023-03-28T00:38:48.135Z,98914.94
2023-03-28T00:40:56.343Z,98911.53
2023-03-28T00:43:01.878Z,98918.38
2023-03-28T00:45:11.771Z,98921.81
2023-03-28T00:47:31.740Z,98926.97
2023-03-28T00:49:36.663Z,98929.53
2023-03-28T00:51:45.156Z,98929.53
2023-03-28T00:53:53.059Z,98931.25
2023-03-28T00:56:02.098Z,98938.91
2023-03-28T00:58:11.352Z,98937.16
2023-03-28T01:00:20.682Z,98931.16
2023-03-28T01:02:28.300Z,98938.84
2023-03-28T01:04:37.523Z,98937.16
2023-03-28T01:06:49.287Z,98934.53
2023-03-28T01:08:58.824Z,98932.81
2023-03-28T01:11:05.163Z,98932.81
2023-03-28T01:13:10.581Z,98943.09
2023-03-28T01:15:15.918Z,98944.78
2023-03-28T01:17:31.676Z,98934.53
2023-03-28T01:19:59.144Z,98947.34
2023-03-28T01:22:41.269Z,98944.81
2023-03-28T01:25:45.993Z,98949.06
2023-03-28T01:28:02.435Z,98950.78
2023-03-28T01:30:59.332Z,98947.34
2023-03-28T01:33:54.928Z,98956.75
2023-03-28T01:36:34.955Z,98961.84
2023-03-28T01:38:50.282Z,98958.41
2023-03-28T01:41:00.164Z,98963.50
2023-03-28T01:43:20.962Z,98960.13
2023-03-28T01:45:37.132Z,98966.13
2023-03-28T01:47:45.014Z,98968.66
2023-03-28T01:49:52.883Z,98971.22
2023-03-28T01:52:03.840Z,98967.78
2023-03-28T01:54:18.978Z,98968.66
2023-03-28T01:56:28.558Z,98974.63
2023-03-28T01:58:43.705Z,98974.63
2023-03-28T02:01:00.814Z,98979.78
2023-03-28T02:03:12.361Z,98978.91
2023-03-28T02:05:29.753Z,98978.91
2023-03-28T02:07:36.724Z,98972.06
2023-03-28T02:09:55.021Z,98968.66
2023-03-28T02:12:28.574Z,98974.59
2023-03-28T02:14:46.894Z,98969.44
2023-03-28T02:17:15.839Z,98973.69
2023-03-28T02:19:41.623Z,98977.97
2023-03-28T02:21:54.369Z,98979.66
2023-03-28T02:24:19.236Z,98984.75
2023-03-28T02:26:49.459Z,98983.03
2023-03-28T02:29:08.856Z,98985.56
2023-03-28T02:31:50.028Z,98983.88
2023-03-28T02:33:59.011Z,98986.47
2023-03-28T02:36:13.472Z,98982.19
2023-03-28T02:38:27.499Z,98982.16
2023-03-28T02:40:43.652Z,98986.47
2023-03-28T02:43:07.265Z,98992.44
2023-03-28T02:45:32.495Z,98993.28
2023-03-28T02:47:42.380Z,98994.16
2023-03-28T02:49:57.629Z,98996.72
2023-03-28T02:52:14.939Z,98986.50
2023-03-28T02:54:31.284Z,98995.94
2023-03-28T02:57:05.294Z,98999.31
2023-03-28T02:59:25.674Z,98994.16
2023-03-28T03:01:31.672Z,98995.91
2023-03-28T03:03:37.700Z,98999.25
2023-03-28T03:05:43.148Z,99000.09
2023-03-28T03:07:50.032Z,99000.09
2023-03-28T03:09:55.728Z,99000.09
2023-03-28T03:12:01.616Z,99006.03
2023-03-28T03:14:06.606Z,99004.25
2023-03-28T03:16:14.831Z,99007.69
2023-03-28T03:18:20.114Z,99008.50
2023-03-28T03:20:26.488Z,99008.50
2023-03-28T03:22:31.928Z,99016.19
2023-03-28T03:24:37.412Z,99012.78
2023-03-28T03:26:42.443Z,99013.66
2023-03-28T03:28:52.801Z,99011.91
2023-03-28T03:30:59.359Z,99011.03
2023-03-28T03:33:17.446Z,99019.63
2023-03-28T03:35:25.702Z,99013.59
2023-03-28T03:37:34.031Z,99009.34
2023-03-28T03:39:39.016Z,99027.28
2023-03-28T03:41:43.994Z,99022.13
2023-03-28T03:43:48.971Z,99032.31
2023-03-28T03:45:53.880Z,99032.31
2023-03-28T03:47:58.953Z,99032.31
2023-03-28T03:50:08.239Z,99038.31
2023-03-28T03:52:14.884Z,99038.25
2023-03-28T03:54:20.084Z,99042.50
2023-03-28T03:56:25.103Z,99043.38
2023-03-28T03:58:38.769Z,99044.19
2023-03-28T04:00:49.261Z,99047.66
2023-03-28T04:03:25.234Z,99039.06
2023-03-28T04:05:34.332Z,99044.19
2023-03-28T04:07:42.422Z,99040.81
2023-03-28T04:09:54.749Z,99043.38
2023-03-28T04:12:03.525Z,99042.53
2023-03-28T04:14:10.015Z,99043.41
2023-03-28T04:16:15.746Z,99043.44
2023-03-28T04:18:25.427Z,99046.84
2023-03-28T04:20:31.928Z,99047.69
2023-03-28T04:23:06.033Z,99051.09
2023-03-28T04:25:14.135Z,99050.19
2023-03-28T04:27:19.850Z,99056.94
2023-03-28T04:29:30.952Z,99057.81
2023-03-28T04:31:56.345Z,99063.84
2023-03-28T04:34:39.058Z,99054.38
2023-03-28T04:36:47.294Z,99054.38
2023-03-28T04:38:58.519Z,99070.59
2023-03-28T04:41:21.774Z,99062.03
2023-03-28T04:43:56.111Z,99063.78
2023-03-28T04:46:02.402Z,99066.31
2023-03-28T04:48:08.345Z,99066.25
2023-03-28T04:50:14.590Z,99063.69
2023-03-28T04:52:19.793Z,99067.13
2023-03-28T04:54:28.412Z,99068.03
2023-03-28T04:56:45.875Z,99077.38
2023-03-28T04:58:54.361Z,99073.03
2023-03-28T05:01:04.323Z,99078.97
2023-03-28T05:03:28.252Z,99080.69
2023-03-28T05:05:39.099Z,99075.53
2023-03-28T05:07:47.590Z,99074.63
2023-03-28T05:09:58.759Z,99076.47
2023-03-28T05:12:11.033Z,99082.47
2023-03-28T05:14:33.688Z,99079.03
2023-03-28T05:16:50.523Z,99082.38
2023-03-28T05:19:14.594Z,99086.72
2023-03-28T05:21:33.033Z,99090.13
2023-03-28T05:23:37.997Z,99086.81
2023-03-28T05:25:59.152Z,99087.69
2023-03-28T05:28:08.175Z,99086.81
2023-03-28T05:30:21.065Z,99086.88
2023-03-28T05:32:31.409Z,99089.41
2023-03-28T05:34:36.346Z,99097.13
2023-03-28T05:36:43.017Z,99094.56
2023-03-28T05:38:59.219Z,99106.59
2023-03-28T05:41:07.077Z,99109.28
2023-03-28T05:43:12.286Z,99099.94
2023-03-28T05:45:17.613Z,99096.56
2023-03-28T05:47:27.578Z,99099.09
2023-03-28T05:49:32.523Z,99106.00
2023-03-28T05:51:37.492Z,99107.72
2023-03-28T05:53:42.455Z,99109.41
2023-03-28T05:55:48.837Z,99123.19
2023-03-28T05:57:59.664Z,99123.19
2023-03-28T06:00:15.329Z,99115.50
2023-03-28T06:02:33.878Z,99128.34
2023-03-28T06:04:39.481Z,99116.44
2023-03-28T06:06:50.503Z,99124.22
2023-03-28T06:09:02.127Z,99131.06
2023-03-28T06:11:11.641Z,99117.44
2023-03-28T06:13:43.809Z,99121.75
2023-03-28T06:15:52.030Z,99126.78
2023-03-28T06:18:01.133Z,99127.63
2023-03-28T06:20:07.220Z,99135.31
2023-03-28T06:22:12.356Z,99133.53
2023-03-28T06:24:17.763Z,99135.25
2023-03-28T06:26:23.936Z,99142.97
2023-03-28T06:28:32.185Z,99136.94
2023-03-28T06:30:57.010Z,99147.22
2023-03-28T06:33:02.079Z,99154.06
2023-03-28T06:35:07.730Z,99149.81
2023-03-28T06:37:12.707Z,99157.53
2023-03-28T06:39:30.368Z,99155.88
2023-03-28T06:41:37.286Z,99160.25
2023-03-28T06:43:42.268Z,99166.19
2023-03-28T06:46:10.371Z,99162.81
2023-03-28T06:48:21.811Z,99167.97
2023-03-28T06:50:50.468Z,99168.03
2023-03-28T06:52:58.111Z,99173.25
2023-03-28T06:55:03.046Z,99177.56
2023-03-28T06:57:09.052Z,99179.31
2023-03-28T06:59:15.954Z,99179.31
2023-03-28T07:01:26.006Z,99177.63
2023-03-28T07:03:41.731Z,99169.88
2023-03-28T07:05:47.244Z,99173.31
2023-03-28T07:07:52.684Z,99174.09
2023-03-28T07:09:57.640Z,99176.69
2023-03-28T07:12:02.670Z,99170.78
2023-03-28T07:14:07.674Z,99171.66
2023-03-28T07:16:16.037Z,99172.59
2023-03-28T07:18:23.777Z,99159.78
2023-03-28T07:20:29.474Z,99166.69
2023-03-28T07:22:34.570Z,99163.31
2023-03-28T07:24:39.736Z,99171.06
2023-03-28T07:26:49.219Z,99169.38
2023-03-28T07:28:56.151Z,99172.88
2023-03-28T07:31:02.634Z,99174.66
2023-03-28T07:33:18.043Z,99177.25
2023-03-28T07:35:27.736Z,99188.47
2023-03-28T07:37:32.797Z,99186.81
2023-03-28T07:40:09.331Z,99186.81
2023-03-28T07:42:15.769Z,99186.81
2023-03-28T07:44:21.197Z,99194.59
2023-03-28T07:46:26.065Z,99197.19
2023-03-28T07:48:32.052Z,99194.63
2023-03-28T07:50:39.834Z,99198.94
2023-03-28T07:52:45.882Z,99196.38
2023-03-28T07:54:51.559Z,99199.00
2023-03-28T07:56:58.049Z,99193.84
2023-03-28T07:59:20.151Z,99199.84
2023-03-28T08:01:28.642Z,99203.28
2023-03-28T08:03:40.199Z,99208.41
2023-03-28T08:05:52.178Z,99212.69
2023-03-28T08:07:59.645Z,99209.22
2023-03-28T08:10:05.429Z,99221.28
2023-03-28T08:12:11.032Z,99211.03
2023-03-28T08:14:20.998Z,99218.75
2023-03-28T08:16:26.987Z,99214.47
2023-03-28T08:18:32.002Z,99213.63
2023-03-28T08:20:37.449Z,99208.50
2023-03-28T08:22:51.924Z,99211.94
2023-03-28T08:25:23.295Z,99221.38
2023-03-28T08:27:32.521Z,99229.09
2023-03-28T08:29:44.371Z,99230.84
2023-03-28T08:31:49.848Z,99228.25
2023-03-28T08:33:55.654Z,99226.53
2023-03-28T08:36:05.719Z,99233.41
2023-03-28T08:38:14.057Z,99231.69
2023-03-28T08:40:23.460Z,99232.56
2023-03-28T08:42:46.761Z,99230.84
2023-03-28T08:45:11.621Z,99229.13
2023-03-28T08:47:21.798Z,99236.88
2023-03-28T08:49:27.298Z,99237.72
2023-03-28T08:51:38.056Z,99222.25
2023-03-28T08:53:48.816Z,99232.50
2023-03-28T08:55:56.898Z,99232.50
2023-03-28T08:58:02.311Z,99235.06
2023-03-28T09:00:17.392Z,99229.91
2023-03-28T09:02:27.937Z,99233.34
2023-03-28T09:04:38.625Z,99232.50
2023-03-28T09:06:59.557Z,99229.94
2023-03-28T09:09:20.108Z,99234.22
2023-03-28T09:11:43.438Z,99237.66
2023-03-28T09:14:01.052Z,99236.81
2023-03-28T09:16:22.458Z,99244.50
2023-03-28T09:18:54.951Z,99248.78
2023-03-28T09:21:07.542Z,99240.22
2023-03-28T09:23:26.758Z,99248.72
2023-03-28T09:26:01.842Z,99242.63
2023-03-28T09:28:29.497Z,99242.56
2023-03-28T09:30:37.602Z,99242.50
2023-03-28T09:32:44.186Z,99245.16
2023-03-28T09:34:53.415Z,99243.44
2023-03-28T09:37:04.085Z,99253.00
2023-03-28T09:39:17.949Z,99239.19
2023-03-28T09:41:32.868Z,99245.19
2023-03-28T09:43:59.960Z,99240.91
2023-03-28T09:46:45.998Z,99248.66
2023-03-28T09:48:57.782Z,99244.28
2023-03-28T09:51:10.247Z,99247.72
2023-03-28T09:53:30.026Z,99254.53
2023-03-28T09:55:37.800Z,99240.84
2023-03-28T09:58:09.266Z,99252.03
2023-03-28T10:00:38.533Z,99245.19
2023-03-28T10:03:03.952Z,99251.25
2023-03-28T10:05:34.695Z,99243.34
2023-03-28T10:07:47.801Z,99243.09
2023-03-28T10:10:21.972Z,99251.63
2023-03-28T10:12:36.797Z,99244.69
2023-03-28T10:14:49.563Z,99237.66
2023-03-28T10:17:18.485Z,99232.34
2023-03-28T10:19:28.379Z,99250.59
2023-03-28T10:21:51.705Z,99241.22
2023-03-28T10:24:05.358Z,99242.91
2023-03-28T10:26:14.205Z,99243.66
2023-03-28T10:28:24.017Z,99231.59
2023-03-28T10:30:34.223Z,99230.69
2023-03-28T10:32:39.396Z,99235.66
2023-03-28T10:35:02.203Z,99233.16
2023-03-28T10:37:32.008Z,99245.13
2023-03-28T10:40:02.774Z,99242.59
2023-03-28T10:42:26.156Z,99244.25
2023-03-28T10:45:02.761Z,99240.56
2023-03-28T10:47:17.130Z,99232.88
2023-03-28T10:49:45.969Z,99248.50
2023-03-28T10:51:53.512Z,99245.03
2023-03-28T10:54:17.802Z,99242.22
2023-03-28T10:56:28.815Z,99234.13
2023-03-28T10:58:37.994Z,99242.25
2023-03-28T11:03:32.487Z,99236.50
2023-03-28T11:05:54.949Z,99248.53
2023-03-28T11:08:04.163Z,99242.63
2023-03-28T11:10:27.632Z,99237.56
2023-03-28T11:14:21.853Z,99243.69
2023-03-28T11:15:30.502Z,99230.75
2023-03-28T11:17:56.721Z,99234.38
2023-03-28T11:20:33.315Z,99219.63
2023-03-28T11:22:58.866Z,99227.41
2023-03-28T11:25:24.905Z,99225.59
2023-03-28T11:28:01.781Z,99225.13
2023-03-28T11:30:16.022Z,99220.56
2023-03-28T11:32:34.522Z,99214.44
2023-03-28T11:34:44.528Z,99218.88
2023-03-28T11:36:56.398Z,99210.41
2023-03-28T11:39:09.321Z,99213.97
2023-03-28T11:41:18.939Z,99212.97
2023-03-28T11:43:48.508Z,99209.25
2023-03-28T11:45:58.499Z,99205.84
2023-03-28T11:48:07.861Z,99203.28
2023-03-28T11:50:20.501Z,99200.69
2023-03-28T11:52:43.258Z,99188.97
2023-03-28T11:54:53.848Z,99192.81
2023-03-28T11:57:04.218Z,99181.53
2023-03-28T11:59:23.780Z,99174.22
2023-03-28T12:01:32.735Z,99175.00
2023-03-28T12:03:59.190Z,99171.59
2023-03-28T12:06:11.081Z,99170.84
2023-03-28T12:08:23.677Z,99175.63
2023-03-28T12:10:36.386Z,99187.31
2023-03-28T12:12:58.517Z,99183.72
2023-03-28T12:15:08.202Z,99187.47
2023-03-28T12:17:30.584Z,99179.03
2023-03-28T12:19:42.119Z,99183.41
2023-03-28T12:21:54.466Z,99190.38
2023-03-28T12:24:20.565Z,99189.22
2023-03-28T12:26:56.183Z,99169.19
2023-03-28T12:29:08.755Z,99168.84
2023-03-28T12:31:21.365Z,99166.16
2023-03-28T12:33:46.076Z,99162.56
2023-03-28T12:36:20.867Z,99172.00
2023-03-28T12:38:33.600Z,99161.63
2023-03-28T12:41:04.109Z,99152.06
2023-03-28T12:43:10.656Z,99157.50
2023-03-28T12:45:21.838Z,99156.75
2023-03-28T12:47:30.927Z,99162.63
2023-03-28T12:49:40.734Z,99158.09
2023-03-28T12:51:51.123Z,99159.06
2023-03-28T12:54:19.860Z,99158.28
2023-03-28T12:56:28.927Z,99151.25
2023-03-28T12:58:38.423Z,99151.16
2023-03-28T13:01:13.375Z,99148.91
2023-03-28T13:03:45.802Z,99159.47
2023-03-28T13:05:59.808Z,99160.25
2023-03-28T13:08:13.837Z,99156.75
2023-03-28T13:10:24.403Z,99150.81
2023-03-28T13:12:42.241Z,99158.63
2023-03-28T13:15:01.356Z,99141.56
2023-03-28T13:17:20.743Z,99152.00
2023-03-28T13:19:41.207Z,99143.28
2023-03-28T13:21:49.752Z,99139.91
2023-03-28T13:23:54.843Z,99143.31
2023-03-28T13:26:03.196Z,99136.91
2023-03-28T13:28:31.965Z,99131.47
2023-03-28T13:30:37.737Z,99133.28
2023-03-28T13:32:48.460Z,99135.22
2023-03-28T13:34:57.881Z,99125.66
2023-03-28T13:37:23.236Z,99122.13
2023-03-28T13:39:33.655Z,99111.75
2023-03-28T13:41:57.895Z,99109.25
2023-03-28T13:44:12.228Z,99105.78
2023-03-28T13:46:21.096Z,99107.16
2023-03-28T13:48:29.948Z,99105.34
2023-03-28T13:50:40.520Z,99104.22
2023-03-28T13:52:45.693Z,99095.44
2023-03-28T13:54:54.482Z,99104.63
2023-03-28T13:57:05.351Z,99102.03
2023-03-28T13:59:17.348Z,99102.78
2023-03-28T14:01:24.563Z,99112.97
2023-03-28T14:03:29.794Z,99101.88
2023-03-28T14:05:36.324Z,99105.53
2023-03-28T14:07:41.787Z,99103.75
2023-03-28T14:09:46.709Z,99107.31
2023-03-28T14:11:53.087Z,99106.28
2023-03-28T14:14:09.524Z,99106.88
2023-03-28T14:16:18.933Z,99100.97
2023-03-28T14:18:32.006Z,99090.72
2023-03-28T14:20:39.687Z,99091.44
2023-03-28T14:22:59.837Z,99093.03
2023-03-28T14:25:09.658Z,99089.25
2023-03-28T14:27:18.057Z,99088.34
2023-03-28T14:29:25.148Z,99094.34
2023-03-28T14:31:35.480Z,99088.72
2023-03-28T14:33:42.095Z,99085.19
2023-03-28T14:36:00.295Z,99088.56
2023-03-28T14:38:07.521Z,99087.50
2023-03-28T14:40:21.698Z,99084.78
2023-03-28T14:42:28.688Z,99078.53
2023-03-28T14:44:38.065Z,99069.16
2023-03-28T14:46:49.654Z,99074.59
2023-03-28T14:48:56.220Z,99075.50
2023-03-28T14:51:04.168Z,99070.00
2023-03-28T14:53:11.077Z,99068.03
2023-03-28T14:55:20.690Z,99056.81
2023-03-28T14:57:26.204Z,99066.91
2023-03-28T14:59:41.870Z,99045.75
2023-03-28T15:01:52.089Z,99051.47
2023-03-28T15:04:01.742Z,99038.78
2023-03-28T15:06:07.566Z,99045.63
2023-03-28T15:08:25.790Z,99037.72
2023-03-28T15:10:31.657Z,99036.91
2023-03-28T15:12:42.921Z,99037.97
2023-03-28T15:14:50.096Z,99032.78
2023-03-28T15:16:58.679Z,99029.41
2023-03-28T15:19:07.421Z,99021.28
2023-03-28T15:21:13.486Z,99020.09
2023-03-28T15:23:23.148Z,99019.78
2023-03-28T15:25:31.974Z,99020.91
2023-03-28T15:27:38.662Z,99019.31
2023-03-28T15:29:43.609Z,99015.16
2023-03-28T15:31:49.142Z,99011.84
2023-03-28T15:33:57.482Z,99006.34
2023-03-28T15:36:12.630Z,98998.97
2023-03-28T15:38:21.771Z,98999.03
2023-03-28T15:40:30.117Z,98993.00
2023-03-28T15:42:38.339Z,98991.06
2023-03-28T15:44:44.362Z,98985.97
2023-03-28T15:46:49.619Z,98987.97
2023-03-28T15:49:07.718Z,98988.44
2023-03-28T15:51:17.630Z,98988.44
2023-03-28T15:53:30.737Z,98983.09
2023-03-28T15:55:37.100Z,98991.00
2023-03-28T15:57:41.998Z,98982.88
2023-03-28T15:59:51.332Z,98978.25
2023-03-28T16:02:23.263Z,98978.84
2023-03-28T16:04:31.300Z,98973.09
2023-03-28T16:06:43.631Z,98976.91
2023-03-28T16:08:50.179Z,98974.72
2023-03-28T16:10:55.265Z,98975.00
2023-03-28T16:13:23.271Z,98967.97
2023-03-28T16:15:37.532Z,98963.50
2023-03-28T16:17:59.053Z,98962.50
2023-03-28T16:20:22.358Z,98962.47
2023-03-28T16:22:28.766Z,98958.16
2023-03-28T16:24:34.864Z,98957.44
2023-03-28T16:26:40.103Z,98958.91
2023-03-28T16:28:45.176Z,98957.72
2023-03-28T16:30:50.441Z,98963.00
2023-03-28T16:32:56.268Z,98962.97
2023-03-28T16:35:00.987Z,98968.97
2023-03-28T16:37:09.172Z,98960.38
2023-03-28T16:39:15.345Z,98960.56
2023-03-28T16:41:20.252Z,98968.34
2023-03-28T16:43:25.192Z,98964.22
2023-03-28T16:45:30.873Z,98960.03
2023-03-28T16:47:36.199Z,98961.72
2023-03-28T16:49:42.095Z,98967.75
2023-03-28T16:51:47.361Z,98961.69
2023-03-28T16:53:54.937Z,98963.47
2023-03-28T16:56:00.035Z,98968.84
2023-03-28T16:58:05.004Z,98965.69
2023-03-28T17:00:21.182Z,98958.72
2023-03-28T17:02:26.182Z,98948.53
2023-03-28T17:04:31.216Z,98951.19
2023-03-28T17:06:36.349Z,98943.50
2023-03-28T17:08:41.556Z,98948.97
2023-03-28T17:10:49.214Z,98931.72
2023-03-28T17:12:54.214Z,98935.16
2023-03-28T17:14:59.456Z,98930.00
2023-03-28T17:17:04.659Z,98934.38
2023-03-28T17:19:09.756Z,98940.50
2023-03-28T17:21:16.542Z,98933.50
2023-03-28T17:23:21.944Z,98933.41
2023-03-28T17:25:29.064Z,98926.47
2023-03-28T17:27:36.630Z,98928.16
2023-03-28T17:29:41.799Z,98930.84
2023-03-28T17:31:46.838Z,98930.13
2023-03-28T17:33:51.899Z,98922.44
2023-03-28T17:35:57.297Z,98922.56
2023-03-28T17:38:02.419Z,98924.38
2023-03-28T17:40:09.100Z,98918.34
2023-03-28T17:42:14.029Z,98914.91
2023-03-28T17:44:21.892Z,98908.13
2023-03-28T17:46:28.238Z,98910.00
2023-03-28T17:48:33.296Z,98917.00
2023-03-28T17:50:38.919Z,98915.41
2023-03-28T17:52:44.798Z,98912.03
2023-03-28T17:54:51.543Z,98907.84
2023-03-28T17:56:57.072Z,98914.88
2023-03-28T17:59:02.661Z,98904.59
2023-03-28T18:01:11.298Z,98907.22
2023-03-28T18:03:17.081Z,98900.47
2023-03-28T18:05:45.041Z,98897.22
2023-03-28T18:07:50.080Z,98892.13
2023-03-28T18:09:56.044Z,98891.34
2023-03-28T18:12:01.485Z,98886.22
2023-03-28T18:14:06.384Z,98887.06
2023-03-28T18:16:18.300Z,98878.47
2023-03-28T18:18:23.369Z,98887.97
2023-03-28T18:20:28.308Z,98885.44
2023-03-28T18:22:33.957Z,98893.28
2023-03-28T18:24:38.906Z,98884.66
2023-03-28T18:26:44.196Z,98877.84
2023-03-28T18:28:49.413Z,98882.25
2023-03-28T18:30:55.270Z,98884.03
2023-03-28T18:33:02.929Z,98887.56
2023-03-28T18:35:09.576Z,98891.06
2023-03-28T18:37:15.097Z,98891.13
2023-03-28T18:39:20.271Z,98885.94
2023-03-28T18:41:26.865Z,98890.34
2023-03-28T18:43:32.077Z,98880.09
2023-03-28T18:45:37.373Z,98881.91
2023-03-28T18:47:43.881Z,98880.28
2023-03-28T18:49:51.447Z,98876.81
2023-03-28T18:52:04.165Z,98876.00
2023-03-28T18:54:09.450Z,98872.56
2023-03-28T18:56:14.508Z,98871.72
2023-03-28T18:58:19.960Z,98874.31
2023-03-28T19:00:24.973Z,98873.47
2023-03-28T19:02:33.080Z,98871.66
2023-03-28T19:04:49.638Z,98867.28
2023-03-28T19:06:57.735Z,98863.75
2023-03-28T19:09:03.887Z,98872.41
2023-03-28T19:11:12.515Z,98864.69
2023-03-28T19:13:17.473Z,98863.84
2023-03-28T19:15:22.986Z,98865.69
2023-03-28T19:17:28.025Z,98867.47
2023-03-28T19:19:37.780Z,98865.03
2023-03-28T19:21:42.775Z,98858.22
2023-03-28T19:23:51.896Z,98852.16
2023-03-28T19:25:57.326Z,98851.31
2023-03-28T19:28:02.282Z,98847.88
2023-03-28T19:30:09.811Z,98849.69
2023-03-28T19:32:14.801Z,98842.78
2023-03-28T19:34:21.124Z,98842.03
2023-03-28T19:36:29.440Z,98842.09
2023-03-28T19:38:36.487Z,98847.31
2023-03-28T19:40:44.033Z,98839.56
2023-03-28T19:42:48.932Z,98843.00
2023-03-28T19:44:53.828Z,98843.00
2023-03-28T19:46:58.798Z,98843.88
2023-03-28T19:49:05.912Z,98840.47
2023-03-28T19:51:10.896Z,98845.66
2023-03-28T19:53:15.905Z,98839.59
2023-03-28T19:55:21.464Z,98844.72
2023-03-28T19:57:29.124Z,98836.91
2023-03-28T19:59:34.030Z,98839.56
2023-03-28T20:01:38.992Z,98839.56
2023-03-28T20:03:44.115Z,98838.72
2023-03-28T20:05:49.820Z,98832.66
2023-03-28T20:07:54.704Z,98824.88
2023-03-28T20:09:59.966Z,98828.34
2023-03-28T20:12:05.049Z,98830.06
2023-03-28T20:14:17.354Z,98825.72
2023-03-28T20:16:22.483Z,98820.66
2023-03-28T20:18:27.232Z,98825.00
2023-03-28T20:20:32.284Z,98824.16
2023-03-28T20:22:38.151Z,98822.47
2023-03-28T20:24:43.141Z,98821.63
2023-03-28T20:26:48.067Z,98808.63
2023-03-28T20:28:57.011Z,98812.88
2023-03-28T20:31:04.791Z,98812.97
2023-03-28T20:33:09.993Z,98807.06
2023-03-28T20:35:14.970Z,98803.50
2023-03-28T20:37:20.318Z,98807.78
2023-03-28T20:39:26.653Z,98802.69
2023-03-28T20:41:31.988Z,98797.56
2023-03-28T20:43:40.990Z,98801.09
2023-03-28T20:45:46.201Z,98794.22
2023-03-28T20:47:56.410Z,98789.84
2023-03-28T20:50:05.812Z,98788.16
2023-03-28T20:52:11.098Z,98791.53
2023-03-28T20:54:15.840Z,98789.00
2023-03-28T20:56:21.906Z,98781.22
2023-03-28T20:58:27.031Z,98773.47
2023-03-28T21:00:33.921Z,98777.81
2023-03-28T21:02:38.877Z,98780.41
2023-03-28T21:04:46.574Z,98776.91
2023-03-28T21:06:51.675Z,98768.31
2023-03-28T21:08:59.605Z,98766.56
2023-03-28T21:11:04.643Z,98758.84
2023-03-28T21:13:09.606Z,98757.13
2023-03-28T21:15:14.870Z,98755.44
2023-03-28T21:17:22.188Z,98760.66
2023-03-28T21:19:27.324Z,98761.50
2023-03-28T21:21:35.753Z,98759.72
2023-03-28T21:23:42.152Z,98754.53
2023-03-28T21:25:49.116Z,98754.53
2023-03-28T21:27:54.089Z,98748.50
2023-03-28T21:30:01.338Z,98744.25
2023-03-28T21:32:06.291Z,98745.97
2023-03-28T21:34:11.401Z,98743.44
2023-03-28T21:36:19.235Z,98750.38
2023-03-28T21:38:27.494Z,98749.63
2023-03-28T21:40:32.419Z,98748.81
2023-03-28T21:42:38.106Z,98745.38
2023-03-28T21:44:43.217Z,98746.22
2023-03-28T21:46:48.486Z,98740.31
2023-03-28T21:48:53.259Z,98737.84
2023-03-28T21:51:00.829Z,98733.50
2023-03-28T21:53:06.023Z,98734.34
2023-03-28T21:55:13.738Z,98727.47
2023-03-28T21:57:18.665Z,98726.59
2023-03-28T21:59:23.766Z,98729.19
2023-03-28T22:01:28.680Z,98722.28
2023-03-28T22:03:33.795Z,98725.66
2023-03-28T22:05:43.061Z,98729.91
2023-03-28T22:07:48.068Z,98724.78
2023-03-28T22:09:53.514Z,98714.50
2023-03-28T22:12:02.951Z,98717.09
2023-03-28T22:14:08.510Z,98713.63
2023-03-28T22:16:15.665Z,98708.50
2023-03-28T22:18:20.885Z,98707.59
2023-03-28T22:20:25.830Z,98707.66
2023-03-28T22:22:30.828Z,98712.06
2023-03-28T22:24:36.512Z,98703.41
2023-03-28T22:26:41.461Z,98705.97
2023-03-28T22:28:49.433Z,98710.34
2023-03-28T22:30:56.955Z,98717.19
2023-03-28T22:33:02.724Z,98709.41
2023-03-28T22:35:08.934Z,98710.19
2023-03-28T22:37:16.950Z,98711.81
2023-03-28T22:39:22.488Z,98706.63
2023-03-28T22:41:32.129Z,98704.84
2023-03-28T22:43:37.633Z,98693.59
2023-03-28T22:45:45.467Z,98693.66
2023-03-28T22:47:50.537Z,98698.78
2023-03-28T22:49:57.094Z,98694.44
2023-03-28T22:52:02.809Z,98696.13
2023-03-28T22:54:07.793Z,98703.91
2023-03-28T22:56:12.808Z,98701.31
2023-03-28T22:58:18.376Z,98705.56
2023-03-28T23:00:24.669Z,98703.03
2023-03-28T23:02:32.258Z,98705.56
2023-03-28T23:04:37.194Z,98700.44
2023-03-28T23:06:43.436Z,98705.63
2023-03-28T23:08:48.418Z,98703.03
2023-03-28T23:10:53.710Z,98697.03
2023-03-28T23:12:58.367Z,98702.25
2023-03-28T23:15:03.373Z,98700.56
2023-03-28T23:17:10.004Z,98696.34
2023-03-28T23:19:17.719Z,98698.03
2023-03-28T23:21:23.183Z,98696.28
2023-03-28T23:23:28.273Z,98704.06
2023-03-28T23:25:33.221Z,98708.34
2023-03-28T23:27:38.097Z,98710.06
2023-03-28T23:29:43.006Z,98703.09
2023-03-28T23:31:48.024Z,98705.69
2023-03-28T23:33:52.883Z,98704.00
2023-03-28T23:36:00.405Z,98692.75
2023-03-28T23:38:05.357Z,98690.16
2023-03-28T23:40:15.282Z,98686.69
2023-03-28T23:42:20.439Z,98686.69
2023-03-28T23:44:25.564Z,98691.84
2023-03-28T23:46:30.577Z,98683.19
2023-03-28T23:48:36.354Z,98690.06
2023-03-28T23:50:42.092Z,98692.59
2023-03-28T23:52:49.668Z,98694.22
2023-03-28T23:54:54.652Z,98706.28
2023-03-28T23:56:59.623Z,98714.88
2023-03-28T23:59:04.537Z,98714.84
